createdAt,value
2022-11-16T00:00:29.838Z,0.00
2022-11-16T00:01:29.838Z,0.00
2022-11-16T00:02:29.832Z,0.00
2022-11-16T00:03:30.756Z,0.00
2022-11-16T00:04:29.787Z,0.00
2022-11-16T00:05:29.775Z,0.00
2022-11-16T00:06:29.771Z,0.00
2022-11-16T00:07:29.897Z,0.00
2022-11-16T00:08:30.235Z,0.00
2022-11-16T00:09:29.726Z,0.00
2022-11-16T00:10:29.708Z,0.00
2022-11-16T00:11:29.688Z,0.00
2022-11-16T00:12:29.688Z,0.00
2022-11-16T00:13:29.673Z,0.00
2022-11-16T00:14:29.659Z,0.00
2022-11-16T00:15:29.638Z,0.00
2022-11-16T00:16:29.639Z,0.00
2022-11-16T00:17:29.628Z,0.00
2022-11-16T00:18:30.783Z,0.00
2022-11-16T00:19:29.590Z,0.00
2022-11-16T00:20:29.579Z,0.00
2022-11-16T05:30:53.395Z,0.00
2022-11-16T05:31:00.112Z,0.00
2022-11-16T05:31:58.136Z,0.00
2022-11-16T05:32:58.365Z,0.00
2022-11-16T05:33:58.102Z,0.00
2022-11-16T05:34:58.106Z,0.00
2022-11-16T05:35:59.027Z,0.00
2022-11-16T05:36:59.015Z,0.00
2022-11-16T05:37:58.848Z,0.00
2022-11-16T05:38:58.037Z,0.00
2022-11-16T05:39:58.050Z,0.00
2022-11-16T05:40:58.017Z,0.00
2022-11-16T05:41:58.968Z,0.00
2022-11-16T05:42:57.988Z,0.00
2022-11-16T05:43:57.974Z,0.00
2022-11-16T05:44:57.969Z,0.00
2022-11-16T05:45:57.986Z,0.00
2022-11-16T05:46:57.939Z,0.00
2022-11-16T05:47:57.938Z,0.00
2022-11-16T05:48:57.919Z,2.00
2022-11-16T05:49:57.938Z,0.00
2022-11-16T05:50:57.879Z,0.00
2022-11-16T05:51:57.867Z,0.00
2022-11-16T05:52:57.851Z,0.00
2022-11-16T05:53:58.080Z,0.00
2022-11-16T05:54:57.830Z,0.00
2022-11-16T05:55:57.844Z,0.00
2022-11-16T05:56:57.809Z,1.00
2022-11-16T05:57:57.791Z,1.00
2022-11-16T05:58:57.774Z,1.00
2022-11-16T05:59:57.771Z,1.00
2022-11-16T06:00:57.751Z,1.00
2022-11-16T06:01:57.754Z,2.00
2022-11-16T06:02:57.775Z,7.00
2022-11-16T06:03:57.701Z,3.00
2022-11-16T06:04:57.704Z,4.00
2022-11-16T06:05:57.678Z,3.00
2022-11-16T06:06:57.735Z,4.00
2022-11-16T06:07:57.659Z,4.00
2022-11-16T06:08:57.632Z,5.00
2022-11-16T06:09:57.633Z,17.00
2022-11-16T06:10:57.610Z,9.00
2022-11-16T06:11:57.602Z,11.00
2022-11-16T06:12:57.587Z,11.00
2022-11-16T06:13:57.576Z,18.00
2022-11-16T06:14:57.776Z,10.00
2022-11-16T06:15:57.546Z,19.00
2022-11-16T06:16:57.533Z,18.00
2022-11-16T06:17:57.526Z,17.00
2022-11-16T06:18:57.505Z,21.00
2022-11-16T06:19:57.503Z,26.00
2022-11-16T06:20:57.538Z,28.00
2022-11-16T06:21:57.497Z,33.00
2022-11-16T06:22:57.454Z,37.00
2022-11-16T06:23:57.445Z,42.00
2022-11-16T06:24:57.426Z,48.00
2022-11-16T06:25:57.426Z,52.00
2022-11-16T06:26:57.405Z,58.00
2022-11-16T06:27:57.387Z,64.00
2022-11-16T06:28:57.380Z,63.00
2022-11-16T06:29:57.358Z,60.00
2022-11-16T06:30:57.367Z,65.00
2022-11-16T06:31:57.370Z,72.00
2022-11-16T06:32:57.323Z,92.00
2022-11-16T06:33:57.317Z,100.00
2022-11-16T06:34:57.338Z,123.00
2022-11-16T06:35:57.298Z,131.00
2022-11-16T06:36:57.272Z,156.00
2022-11-16T06:37:57.269Z,169.00
2022-11-16T06:38:57.239Z,179.00
2022-11-16T06:39:57.238Z,185.00
2022-11-16T06:40:57.260Z,192.00
2022-11-16T06:41:57.248Z,204.00
2022-11-16T06:42:57.189Z,208.00
2022-11-16T06:43:57.180Z,220.00
2022-11-16T06:44:57.169Z,229.00
2022-11-16T06:45:57.162Z,237.00
2022-11-16T06:46:57.140Z,247.00
2022-11-16T06:47:57.130Z,256.00
2022-11-16T06:48:57.104Z,270.00
2022-11-16T06:49:57.111Z,276.00
2022-11-16T06:50:57.090Z,284.00
2022-11-16T06:51:57.087Z,290.00
2022-11-16T06:52:57.089Z,291.00
2022-11-16T06:53:57.092Z,312.00
2022-11-16T06:54:57.039Z,322.00
2022-11-16T06:55:57.032Z,338.00
2022-11-16T06:56:57.001Z,352.00
2022-11-16T06:57:56.993Z,352.00
2022-11-16T06:58:56.972Z,369.00
2022-11-16T06:59:56.970Z,376.00
2022-11-16T07:00:56.972Z,400.00
2022-11-16T07:01:57.957Z,407.00
2022-11-16T07:02:57.892Z,426.00
2022-11-16T07:03:56.924Z,438.00
2022-11-16T07:05:02.152Z,459.00
2022-11-16T07:05:57.903Z,481.00
2022-11-16T07:06:57.168Z,495.00
2022-11-16T07:07:57.110Z,520.00
2022-11-16T07:08:56.844Z,545.00
2022-11-16T07:09:56.834Z,564.00
2022-11-16T07:11:01.488Z,592.00
2022-11-16T07:11:57.805Z,620.00
2022-11-16T07:12:56.784Z,642.00
2022-11-16T07:13:56.794Z,664.00
2022-11-16T07:14:56.756Z,707.00
2022-11-16T07:15:56.766Z,714.00
2022-11-16T07:17:00.339Z,759.00
2022-11-16T07:17:57.726Z,781.00
2022-11-16T07:18:56.718Z,809.00
2022-11-16T07:19:56.707Z,839.00
2022-11-16T07:20:56.695Z,874.00
2022-11-16T07:21:56.680Z,911.00
2022-11-16T07:22:56.657Z,942.00
2022-11-16T07:23:56.656Z,983.00
2022-11-16T07:24:56.634Z,1011.00
2022-11-16T07:25:56.638Z,1040.00
2022-11-16T07:26:56.607Z,1081.00
2022-11-16T07:27:56.598Z,1104.00
2022-11-16T07:28:56.577Z,1127.00
2022-11-16T07:29:56.568Z,1176.00
2022-11-16T07:30:56.560Z,1207.00
2022-11-16T07:31:56.549Z,1221.00
2022-11-16T07:32:56.528Z,1247.00
2022-11-16T07:33:57.479Z,1283.00
2022-11-16T07:34:59.277Z,1311.00
2022-11-16T07:35:56.508Z,1342.00
2022-11-16T07:36:56.481Z,1370.00
2022-11-16T07:37:56.469Z,1400.00
2022-11-16T07:38:56.449Z,1424.00
2022-11-16T07:39:56.444Z,1457.00
2022-11-16T07:40:56.440Z,1476.00
2022-11-16T07:41:56.423Z,1515.00
2022-11-16T07:42:56.409Z,1542.00
2022-11-16T07:43:56.394Z,1565.00
2022-11-16T07:44:56.372Z,1600.00
2022-11-16T07:46:00.353Z,1631.00
2022-11-16T07:46:57.357Z,1655.00
2022-11-16T07:47:56.333Z,1675.00
2022-11-16T07:48:56.341Z,1686.00
2022-11-16T07:49:56.307Z,1721.00
2022-11-16T07:50:56.293Z,1738.00
2022-11-16T07:51:56.294Z,1764.00
2022-11-16T07:52:56.270Z,1783.00
2022-11-16T07:53:56.271Z,1790.00
2022-11-16T07:54:56.240Z,1808.00
2022-11-16T07:55:56.224Z,1837.00
2022-11-16T07:56:56.224Z,1846.00
2022-11-16T07:57:56.204Z,1876.00
2022-11-16T07:58:57.142Z,1894.00
2022-11-16T07:59:56.201Z,1912.00
2022-11-16T08:00:56.166Z,1944.00
2022-11-16T08:01:56.186Z,1955.00
2022-11-16T08:02:56.134Z,1976.00
2022-11-16T08:03:56.123Z,2005.00
2022-11-16T08:04:57.055Z,2000.00
2022-11-16T08:05:56.104Z,2026.00
2022-11-16T08:06:56.130Z,2027.00
2022-11-16T08:07:56.065Z,2062.00
2022-11-16T08:08:58.624Z,2062.00
2022-11-16T08:09:57.066Z,2066.00
2022-11-16T08:10:56.036Z,2066.00
2022-11-16T08:11:56.061Z,2068.00
2022-11-16T08:12:56.006Z,2058.00
2022-11-16T08:13:55.987Z,2041.00
2022-11-16T08:14:55.976Z,2024.00
2022-11-16T08:15:55.960Z,2026.00
2022-11-16T08:16:55.957Z,2009.00
2022-11-16T08:17:55.929Z,2001.00
2022-11-16T08:18:55.920Z,1989.00
2022-11-16T08:19:55.902Z,1985.00
2022-11-16T08:20:55.888Z,1965.00
2022-11-16T08:21:55.887Z,1965.00
2022-11-16T08:22:55.868Z,1963.00
2022-11-16T08:23:58.670Z,1955.00
2022-11-16T08:24:55.878Z,1956.00
2022-11-16T08:25:55.828Z,1949.00
2022-11-16T08:26:55.824Z,1950.00
2022-11-16T08:27:55.799Z,1943.00
2022-11-16T08:28:55.791Z,1948.00
2022-11-16T08:29:55.777Z,1943.00
2022-11-16T08:30:55.769Z,1938.00
2022-11-16T08:31:55.759Z,1940.00
2022-11-16T08:32:55.738Z,1936.00
2022-11-16T08:33:55.720Z,1944.00
2022-11-16T08:34:55.711Z,1938.00
2022-11-16T08:35:55.690Z,1934.00
2022-11-16T08:36:55.691Z,1939.00
2022-11-16T08:37:55.678Z,1938.00
2022-11-16T08:38:55.654Z,1920.00
2022-11-16T08:39:55.649Z,1912.00
2022-11-16T08:40:55.644Z,1897.00
2022-11-16T08:41:55.642Z,1895.00
2022-11-16T08:42:55.603Z,1862.00
2022-11-16T08:43:55.583Z,1852.00
2022-11-16T08:44:55.574Z,1837.00
2022-11-16T08:45:55.564Z,1811.00
2022-11-16T08:46:55.582Z,1794.00
2022-11-16T08:48:03.554Z,1770.00
2022-11-16T08:48:56.533Z,1755.00
2022-11-16T08:49:55.503Z,1752.00
2022-11-16T08:51:16.317Z,1735.00
2022-11-16T08:51:56.485Z,1729.00
2022-11-16T08:52:55.477Z,1742.00
2022-11-16T08:53:55.454Z,1747.00
2022-11-16T08:54:55.471Z,1765.00
2022-11-16T08:55:55.425Z,1769.00
2022-11-16T08:56:55.433Z,1782.00
2022-11-16T08:57:55.398Z,1814.00
2022-11-16T08:58:58.416Z,1818.00
2022-11-16T08:59:55.372Z,1827.00
2022-11-16T09:00:55.367Z,1830.00
2022-11-16T09:01:55.378Z,1838.00
2022-11-16T09:02:55.339Z,1844.00
2022-11-16T09:03:56.278Z,1830.00
2022-11-16T09:04:55.312Z,1838.00
2022-11-16T09:05:55.298Z,1836.00
2022-11-16T09:06:55.372Z,1849.00
2022-11-16T09:07:55.268Z,1852.00
2022-11-16T09:08:55.259Z,1872.00
2022-11-16T09:09:55.239Z,1882.00
2022-11-16T09:10:55.233Z,1893.00
2022-11-16T09:11:55.218Z,1923.00
2022-11-16T09:12:55.208Z,1934.00
2022-11-16T09:13:55.180Z,1960.00
2022-11-16T09:14:55.180Z,1995.00
2022-11-16T09:15:55.158Z,2016.00
2022-11-16T09:16:55.162Z,2043.00
2022-11-16T09:17:55.146Z,2080.00
2022-11-16T09:18:56.080Z,2107.00
2022-11-16T09:19:55.100Z,2139.00
2022-11-16T09:20:55.100Z,2158.00
2022-11-16T09:21:55.080Z,2171.00
2022-11-16T09:22:55.078Z,2189.00
2022-11-16T09:23:55.063Z,2186.00
2022-11-16T09:24:55.043Z,2186.00
2022-11-16T09:25:55.047Z,2187.00
2022-11-16T09:26:55.021Z,2185.00
2022-11-16T09:27:55.002Z,2194.00
2022-11-16T09:28:54.983Z,2177.00
2022-11-16T09:29:54.973Z,2158.00
2022-11-16T09:30:54.972Z,2160.00
2022-11-16T09:31:54.956Z,2136.00
2022-11-16T09:32:54.944Z,2095.00
2022-11-16T09:33:54.926Z,2067.00
2022-11-16T09:34:54.943Z,2032.00
2022-11-16T09:35:54.893Z,1998.00
2022-11-16T09:36:54.934Z,1964.00
2022-11-16T09:37:54.963Z,1928.00
2022-11-16T09:39:29.560Z,1895.00
2022-11-16T09:39:55.835Z,1883.00
2022-11-16T09:40:54.855Z,1883.00
2022-11-16T09:41:54.805Z,1855.00
2022-11-16T09:42:54.819Z,1849.00
2022-11-16T09:43:54.817Z,1843.00
2022-11-16T09:44:54.811Z,1843.00
2022-11-16T09:45:54.833Z,1852.00
2022-11-16T09:46:54.776Z,1886.00
2022-11-16T09:47:54.776Z,1906.00
2022-11-16T09:48:54.736Z,1954.00
2022-11-16T09:49:59.744Z,1985.00
2022-11-16T09:50:55.686Z,2030.00
2022-11-16T09:51:54.676Z,2067.00
2022-11-16T09:52:54.758Z,2123.00
2022-11-16T09:53:54.650Z,2165.00
2022-11-16T09:54:54.668Z,2231.00
2022-11-16T09:55:54.632Z,2283.00
2022-11-16T09:56:54.608Z,2340.00
2022-11-16T09:57:54.622Z,2392.00
2022-11-16T09:58:54.587Z,2427.00
2022-11-16T09:59:54.563Z,2447.00
2022-11-16T10:00:54.644Z,2458.00
2022-11-16T10:01:54.553Z,2468.00
2022-11-16T10:02:54.529Z,2489.00
2022-11-16T10:03:54.509Z,2481.00
2022-11-16T10:04:58.155Z,2487.00
2022-11-16T10:05:54.479Z,2502.00
2022-11-16T10:06:54.520Z,2497.00
2022-11-16T10:07:54.460Z,2493.00
2022-11-16T10:08:54.443Z,2492.00
2022-11-16T10:09:54.430Z,2500.00
2022-11-16T10:10:54.411Z,2483.00
2022-11-16T10:11:54.399Z,2450.00
2022-11-16T10:12:54.401Z,2409.00
2022-11-16T10:13:57.871Z,2370.00
2022-11-16T10:14:54.361Z,2319.00
2022-11-16T10:15:54.344Z,2286.00
2022-11-16T10:16:54.329Z,2242.00
2022-11-16T10:17:54.332Z,2221.00
2022-11-16T10:18:54.313Z,2208.00
2022-11-16T10:19:54.291Z,2190.00
2022-11-16T10:20:54.283Z,2179.00
2022-11-16T10:21:54.263Z,2186.00
2022-11-16T10:22:54.263Z,2188.00
2022-11-16T10:23:54.296Z,2187.00
2022-11-16T10:24:54.372Z,2204.00
2022-11-16T10:25:54.263Z,2215.00
2022-11-16T10:26:54.216Z,2255.00
2022-11-16T10:27:54.208Z,2294.00
2022-11-16T10:28:54.175Z,2339.00
2022-11-16T10:29:54.157Z,2394.00
2022-11-16T10:30:54.144Z,2453.00
2022-11-16T10:31:54.133Z,2512.00
2022-11-16T10:32:54.126Z,2586.00
2022-11-16T10:33:55.047Z,2661.00
2022-11-16T10:34:54.092Z,2725.00
2022-11-16T10:35:54.080Z,2765.00
2022-11-16T10:36:54.069Z,2828.00
2022-11-16T10:37:54.057Z,2867.00
2022-11-16T10:38:54.037Z,2921.00
2022-11-16T10:39:54.019Z,2983.00
2022-11-16T10:40:54.007Z,3042.00
2022-11-16T10:41:53.988Z,3100.00
2022-11-16T10:42:53.987Z,3143.00
2022-11-16T10:43:53.967Z,3162.00
2022-11-16T10:44:53.959Z,3175.00
2022-11-16T10:45:53.938Z,3183.00
2022-11-16T10:46:53.929Z,3200.00
2022-11-16T10:47:53.930Z,3215.00
2022-11-16T10:48:53.899Z,3205.00
2022-11-16T10:49:53.891Z,3205.00
2022-11-16T10:50:53.879Z,3182.00
2022-11-16T10:51:53.860Z,3132.00
2022-11-16T10:52:53.874Z,3098.00
2022-11-16T10:53:54.789Z,3057.00
2022-11-16T10:54:53.829Z,3047.00
2022-11-16T10:55:53.802Z,3007.00
2022-11-16T10:56:53.797Z,2956.00
2022-11-16T10:57:53.792Z,2916.00
2022-11-16T10:58:53.771Z,2902.00
2022-11-16T10:59:53.751Z,2896.00
2022-11-16T11:00:53.780Z,2897.00
2022-11-16T11:01:53.722Z,2905.00
2022-11-16T11:02:53.720Z,2899.00
2022-11-16T11:03:53.703Z,2891.00
2022-11-16T11:04:53.683Z,2869.00
2022-11-16T11:05:53.678Z,2837.00
2022-11-16T11:06:53.774Z,2805.00
2022-11-16T11:07:59.358Z,2781.00
2022-11-16T11:08:54.643Z,2774.00
2022-11-16T11:09:53.695Z,2754.00
2022-11-16T11:10:53.695Z,2767.00
2022-11-16T11:11:53.639Z,2777.00
2022-11-16T11:12:53.612Z,2788.00
2022-11-16T11:13:54.524Z,2837.00
2022-11-16T11:14:53.556Z,2856.00
2022-11-16T11:15:53.546Z,2887.00
2022-11-16T11:16:53.555Z,2894.00
2022-11-16T11:17:53.525Z,2915.00
2022-11-16T11:18:53.513Z,2901.00
2022-11-16T11:19:53.510Z,2886.00
2022-11-16T11:20:53.469Z,2849.00
2022-11-16T11:21:53.467Z,2855.00
2022-11-16T11:22:53.466Z,2832.00
2022-11-16T11:23:53.431Z,2825.00
2022-11-16T11:24:53.416Z,2815.00
2022-11-16T11:25:53.399Z,2818.00
2022-11-16T11:26:53.388Z,2803.00
2022-11-16T11:27:53.384Z,2800.00
2022-11-16T11:28:53.369Z,2789.00
2022-11-16T11:29:53.348Z,2788.00
2022-11-16T11:30:53.340Z,2793.00
2022-11-16T11:31:53.321Z,2796.00
2022-11-16T11:32:53.330Z,2796.00
2022-11-16T11:33:53.290Z,2809.00
2022-11-16T11:34:53.298Z,2816.00
2022-11-16T11:35:53.271Z,2822.00
2022-11-16T11:36:53.282Z,2847.00
2022-11-16T11:37:53.252Z,2860.00
2022-11-16T11:38:53.322Z,2894.00
2022-11-16T11:39:53.210Z,2913.00
2022-11-16T11:40:53.202Z,2937.00
2022-11-16T11:41:53.192Z,2978.00
2022-11-16T11:42:53.189Z,3005.00
2022-11-16T11:43:54.103Z,3028.00
2022-11-16T11:44:53.152Z,3077.00
2022-11-16T11:45:53.153Z,3101.00
2022-11-16T11:47:58.971Z,3097.00
2022-11-16T11:48:54.105Z,3084.00
2022-11-16T11:49:53.084Z,3053.00
2022-11-16T11:50:53.075Z,3039.00
2022-11-16T11:51:53.054Z,3034.00
2022-11-16T11:52:53.061Z,3028.00
2022-11-16T11:53:53.024Z,3018.00
2022-11-16T11:54:53.019Z,2983.00
2022-11-16T11:55:53.005Z,2953.00
2022-11-16T11:56:52.995Z,2915.00
2022-11-16T11:57:53.020Z,2880.00
2022-11-16T11:58:53.206Z,2841.00
2022-11-16T11:59:53.904Z,2809.00
2022-11-16T12:00:52.936Z,2772.00
2022-11-16T12:01:52.926Z,2728.00
2022-11-16T12:02:53.022Z,2663.00
2022-11-16T12:03:52.897Z,2636.00
2022-11-16T12:04:52.886Z,2593.00
2022-11-16T12:05:52.886Z,2547.00
2022-11-16T12:06:52.950Z,2507.00
2022-11-16T12:07:52.848Z,2481.00
2022-11-16T12:08:52.827Z,2454.00
2022-11-16T12:09:52.807Z,2446.00
2022-11-16T12:10:52.810Z,2454.00
2022-11-16T12:11:52.789Z,2451.00
2022-11-16T12:12:53.738Z,2480.00
2022-11-16T12:13:52.807Z,2510.00
2022-11-16T12:14:52.754Z,2558.00
2022-11-16T12:15:52.734Z,2611.00
2022-11-16T12:16:52.719Z,2690.00
2022-11-16T12:17:52.719Z,2761.00
2022-11-16T12:18:52.699Z,2775.00
2022-11-16T12:19:52.677Z,2774.00
2022-11-16T12:20:52.660Z,2788.00
2022-11-16T12:21:52.650Z,2809.00
2022-11-16T12:22:52.662Z,2873.00
2022-11-16T12:23:52.629Z,2903.00
2022-11-16T12:24:52.618Z,2927.00
2022-11-16T12:25:52.591Z,2940.00
2022-11-16T12:26:52.589Z,2918.00
2022-11-16T12:27:52.583Z,2890.00
2022-11-16T12:28:52.557Z,2851.00
2022-11-16T12:29:52.562Z,2825.00
2022-11-16T12:30:52.533Z,2765.00
2022-11-16T12:31:52.522Z,2709.00
2022-11-16T12:32:53.466Z,2636.00
2022-11-16T12:33:52.494Z,2588.00
2022-11-16T12:34:52.502Z,2488.00
2022-11-16T12:35:52.471Z,2363.00
2022-11-16T12:36:52.455Z,2192.00
2022-11-16T12:37:52.459Z,2052.00
2022-11-16T12:38:52.433Z,1922.00
2022-11-16T12:39:52.429Z,1861.00
2022-11-16T12:40:52.397Z,1862.00
2022-11-16T12:41:52.394Z,1855.00
2022-11-16T12:42:52.375Z,1799.00
2022-11-16T12:43:52.354Z,1686.00
2022-11-16T12:44:52.346Z,1600.00
2022-11-16T12:45:52.349Z,1552.00
2022-11-16T12:46:52.316Z,1526.00
2022-11-16T12:47:52.316Z,1557.00
2022-11-16T12:48:52.296Z,1568.00
2022-11-16T12:49:52.276Z,1569.00
2022-11-16T12:50:52.258Z,1604.00
2022-11-16T12:51:52.258Z,1578.00
2022-11-16T12:52:52.239Z,1494.00
2022-11-16T12:53:52.261Z,1355.00
2022-11-16T12:55:23.951Z,1277.00
2022-11-16T12:55:53.204Z,1185.00
2022-11-16T12:56:52.186Z,1120.00
2022-11-16T12:57:52.189Z,1082.00
2022-11-16T12:58:52.159Z,1036.00
2022-11-16T12:59:52.139Z,999.00
2022-11-16T13:00:52.216Z,983.00
2022-11-16T13:01:56.296Z,1004.00
2022-11-16T13:02:54.592Z,1001.00
2022-11-16T13:03:52.091Z,983.00
2022-11-16T13:04:52.087Z,960.00
2022-11-16T13:05:52.070Z,958.00
2022-11-16T13:06:52.108Z,978.00
2022-11-16T13:07:52.041Z,973.00
2022-11-16T13:08:52.042Z,984.00
2022-11-16T13:09:52.012Z,993.00
2022-11-16T13:10:51.992Z,973.00
2022-11-16T13:11:51.986Z,878.00
2022-11-16T13:12:55.858Z,808.00
2022-11-16T13:13:54.049Z,744.00
2022-11-16T13:14:51.943Z,713.00
2022-11-16T13:15:51.934Z,709.00
2022-11-16T13:16:51.912Z,681.00
2022-11-16T13:17:51.918Z,669.00
2022-11-16T13:18:51.894Z,663.00
2022-11-16T13:19:51.881Z,651.00
2022-11-16T13:20:51.863Z,655.00
2022-11-16T13:21:51.844Z,643.00
2022-11-16T13:22:51.845Z,622.00
2022-11-16T13:23:51.831Z,627.00
2022-11-16T13:24:51.804Z,628.00
2022-11-16T13:25:51.806Z,634.00
2022-11-16T13:26:51.775Z,629.00
2022-11-16T13:27:51.777Z,621.00
2022-11-16T13:28:51.745Z,627.00
2022-11-16T13:29:51.739Z,621.00
2022-11-16T13:30:52.667Z,634.00
2022-11-16T13:31:51.711Z,610.00
2022-11-16T13:32:51.718Z,586.00
2022-11-16T13:33:51.705Z,602.00
2022-11-16T13:34:51.666Z,607.00
2022-11-16T13:35:51.660Z,600.00
2022-11-16T13:36:51.658Z,595.00
2022-11-16T13:37:51.636Z,590.00
2022-11-16T13:38:51.610Z,610.00
2022-11-16T13:39:51.597Z,599.00
2022-11-16T13:40:51.598Z,564.00
2022-11-16T13:41:51.591Z,527.00
2022-11-16T13:42:51.569Z,499.00
2022-11-16T13:43:51.549Z,483.00
2022-11-16T13:44:51.800Z,453.00
2022-11-16T13:45:51.518Z,443.00
2022-11-16T13:46:56.161Z,435.00
2022-11-16T13:47:52.502Z,433.00
2022-11-16T13:48:51.475Z,413.00
2022-11-16T13:49:51.460Z,392.00
2022-11-16T13:50:51.440Z,393.00
2022-11-16T13:51:51.440Z,379.00
2022-11-16T13:53:57.644Z,376.00
2022-11-16T13:54:52.821Z,328.00
2022-11-16T13:55:51.387Z,322.00
2022-11-16T13:56:51.374Z,313.00
2022-11-16T13:57:51.363Z,304.00
2022-11-16T13:58:51.344Z,293.00
2022-11-16T13:59:51.323Z,292.00
2022-11-16T14:00:51.383Z,288.00
2022-11-16T14:01:51.304Z,281.00
2022-11-16T14:02:51.303Z,282.00
2022-11-16T14:03:51.275Z,283.00
2022-11-16T14:04:51.264Z,296.00
2022-11-16T14:05:51.248Z,304.00
2022-11-16T14:06:51.245Z,299.00
2022-11-16T14:07:51.234Z,307.00
2022-11-16T14:08:51.210Z,292.00
2022-11-16T14:09:51.194Z,293.00
2022-11-16T14:10:51.174Z,277.00
2022-11-16T14:11:51.166Z,269.00
2022-11-16T14:12:51.155Z,254.00
2022-11-16T14:13:51.134Z,260.00
2022-11-16T14:14:51.113Z,260.00
2022-11-16T14:15:51.108Z,264.00
2022-11-16T14:16:51.088Z,258.00
2022-11-16T14:17:51.112Z,261.00
2022-11-16T14:18:51.058Z,254.00
2022-11-16T14:19:51.057Z,255.00
2022-11-16T14:20:51.068Z,246.00
2022-11-16T14:21:51.069Z,219.00
2022-11-16T14:22:51.017Z,228.00
2022-11-16T14:23:50.997Z,221.00
2022-11-16T14:24:50.979Z,213.00
2022-11-16T14:25:50.978Z,196.00
2022-11-16T14:26:51.902Z,208.00
2022-11-16T14:27:50.951Z,209.00
2022-11-16T14:28:50.957Z,211.00
2022-11-16T14:29:51.187Z,200.00
2022-11-16T14:30:51.405Z,191.00
2022-11-16T14:31:51.209Z,192.00
2022-11-16T14:32:51.039Z,181.00
2022-11-16T14:33:50.861Z,174.00
2022-11-16T14:34:50.918Z,179.00
2022-11-16T14:35:51.000Z,176.00
2022-11-16T14:36:52.925Z,160.00
2022-11-16T14:37:51.007Z,149.00
2022-11-16T14:38:50.792Z,152.00
2022-11-16T14:39:50.801Z,156.00
2022-11-16T14:40:53.639Z,154.00
2022-11-16T14:41:51.751Z,154.00
2022-11-16T14:43:14.981Z,149.00
2022-11-16T14:43:52.422Z,146.00
2022-11-16T14:44:50.701Z,131.00
2022-11-16T14:45:50.702Z,130.00
2022-11-16T14:46:50.691Z,121.00
2022-11-16T14:47:50.683Z,120.00
2022-11-16T14:48:50.691Z,117.00
2022-11-16T14:49:50.648Z,113.00
2022-11-16T14:50:50.624Z,108.00
2022-11-16T14:51:50.623Z,105.00
2022-11-16T14:52:50.624Z,99.00
2022-11-16T14:53:50.616Z,100.00
2022-11-16T14:54:50.575Z,87.00
2022-11-16T14:55:50.579Z,86.00
2022-11-16T14:56:50.564Z,87.00
2022-11-16T14:57:50.555Z,83.00
2022-11-16T14:58:50.525Z,82.00
2022-11-16T14:59:50.505Z,88.00
2022-11-16T15:00:50.487Z,81.00
2022-11-16T15:01:50.489Z,84.00
2022-11-16T15:02:51.832Z,69.00
2022-11-16T15:03:50.493Z,64.00
2022-11-16T15:04:50.438Z,58.00
2022-11-16T15:05:50.427Z,60.00
2022-11-16T15:06:50.488Z,50.00
2022-11-16T15:07:50.409Z,51.00
2022-11-16T15:08:50.390Z,45.00
2022-11-16T15:09:50.376Z,39.00
2022-11-16T15:10:52.495Z,46.00
2022-11-16T15:11:50.344Z,52.00
2022-11-16T15:12:50.336Z,49.00
2022-11-16T15:13:50.328Z,42.00
2022-11-16T15:14:50.329Z,45.00
2022-11-16T15:15:50.302Z,36.00
2022-11-16T15:16:50.274Z,39.00
2022-11-16T15:17:50.279Z,37.00
2022-11-16T15:18:50.256Z,43.00
2022-11-16T15:19:50.238Z,30.00
2022-11-16T15:20:50.220Z,24.00
2022-11-16T15:21:50.211Z,24.00
2022-11-16T15:22:50.200Z,18.00
2022-11-16T15:24:08.601Z,18.00
2022-11-16T15:24:51.177Z,16.00
2022-11-16T15:25:50.162Z,15.00
2022-11-16T15:26:50.139Z,15.00
2022-11-16T15:27:50.132Z,15.00
2022-11-16T15:28:50.349Z,6.00
2022-11-16T15:29:50.116Z,16.00
2022-11-16T15:30:50.088Z,12.00
2022-11-16T15:31:50.072Z,14.00
2022-11-16T15:32:50.083Z,10.00
2022-11-16T15:33:50.043Z,10.00
2022-11-16T15:34:50.043Z,7.00
2022-11-16T15:35:50.037Z,7.00
2022-11-16T15:36:50.012Z,2.00
2022-11-16T15:37:50.067Z,3.00
2022-11-16T15:38:49.976Z,5.00
2022-11-16T15:39:49.965Z,1.00
2022-11-16T15:40:49.954Z,2.00
2022-11-16T15:41:49.939Z,0.00
2022-11-16T15:42:49.956Z,0.00
2022-11-16T15:44:11.702Z,0.00
2022-11-16T15:44:50.903Z,2.00
2022-11-16T15:45:49.884Z,2.00
2022-11-16T15:46:49.888Z,0.00
2022-11-16T15:47:49.862Z,0.00
2022-11-16T15:48:49.837Z,0.00
2022-11-16T15:49:49.836Z,0.00
2022-11-16T15:50:49.818Z,0.00
2022-11-16T15:51:49.800Z,0.00
2022-11-16T15:52:49.788Z,0.00
2022-11-16T15:53:49.785Z,0.00
2022-11-16T15:54:49.767Z,0.00
2022-11-16T15:55:50.179Z,0.00
2022-11-16T15:56:49.748Z,0.00
2022-11-16T15:57:49.728Z,0.00
2022-11-16T15:58:49.737Z,0.00
2022-11-16T15:59:55.589Z,0.00
2022-11-16T16:03:42.230Z,0.00
2022-11-16T16:03:46.990Z,0.00
2022-11-16T16:04:46.984Z,0.00
2022-11-16T16:05:46.971Z,0.00
2022-11-16T16:06:46.952Z,0.00
2022-11-16T16:07:46.995Z,0.00
2022-11-16T16:08:46.921Z,0.00
2022-11-16T16:09:46.911Z,0.00
2022-11-16T16:10:46.891Z,0.00
2022-11-16T16:11:46.904Z,0.00
2022-11-16T16:12:46.873Z,0.00
2022-11-16T16:13:46.853Z,0.00
2022-11-16T16:14:46.852Z,0.00
2022-11-16T16:15:46.843Z,0.00
2022-11-16T16:16:46.815Z,0.00
2022-11-16T16:17:46.814Z,0.00
2022-11-16T16:18:46.785Z,0.00
2022-11-16T16:19:46.776Z,0.00
2022-11-16T16:20:47.706Z,0.00
2022-11-16T16:21:46.765Z,0.00
2022-11-16T16:22:46.734Z,0.00
2022-11-16T16:23:46.732Z,0.00
2022-11-16T16:24:46.709Z,0.00
2022-11-16T16:25:50.561Z,0.00
2022-11-16T16:26:46.747Z,0.00
2022-11-16T16:27:46.676Z,0.00
2022-11-16T16:28:47.280Z,0.00
2022-11-16T16:29:46.646Z,0.00
2022-11-16T16:30:46.626Z,0.00
2022-11-16T16:31:46.646Z,0.00
2022-11-16T16:32:48.946Z,0.00
2022-11-16T16:33:48.637Z,0.00
2022-11-16T16:34:47.310Z,0.00
2022-11-16T16:35:46.556Z,0.00
2022-11-16T16:36:46.551Z,0.00
2022-11-16T16:37:46.548Z,0.00
2022-11-16T16:38:47.147Z,0.00
2022-11-16T16:39:46.517Z,0.00
2022-11-16T16:40:46.588Z,0.00
2022-11-16T16:41:46.490Z,0.00
2022-11-16T16:42:46.490Z,0.00
2022-11-16T16:43:46.736Z,0.00
2022-11-16T16:44:47.988Z,0.00
2022-11-16T16:45:47.169Z,0.00
2022-11-16T16:46:48.940Z,0.00
2022-11-16T16:47:47.131Z,0.00
2022-11-16T16:48:46.836Z,0.00
2022-11-16T16:49:46.540Z,0.00
2022-11-16T16:50:47.824Z,0.00
2022-11-16T16:51:55.709Z,0.00
2022-11-16T16:52:50.396Z,0.00
2022-11-16T16:54:05.017Z,0.00
2022-11-16T16:54:46.552Z,0.00
2022-11-16T16:55:46.401Z,0.00
2022-11-16T16:56:46.632Z,0.00
2022-11-16T16:57:47.889Z,0.00
2022-11-16T16:58:48.112Z,0.00
2022-11-16T16:59:48.412Z,0.00
2022-11-16T17:00:46.292Z,0.00
2022-11-16T17:01:46.213Z,0.00
2022-11-16T17:02:47.520Z,0.00
2022-11-16T17:03:46.743Z,0.00
2022-11-16T17:04:46.193Z,0.00
2022-11-16T17:05:46.232Z,0.00
2022-11-16T17:06:46.745Z,0.00
2022-11-16T17:07:46.147Z,0.00
2022-11-16T17:08:46.424Z,0.00
2022-11-16T17:09:47.174Z,0.00
2022-11-16T17:10:50.016Z,0.00
2022-11-16T17:11:46.135Z,0.00
2022-11-16T17:12:46.400Z,0.00
2022-11-16T17:13:46.125Z,0.00
2022-11-16T17:14:46.371Z,0.00
2022-11-16T17:15:46.015Z,0.00
2022-11-16T17:16:46.356Z,0.00
2022-11-16T17:17:50.235Z,0.00
2022-11-16T17:18:46.348Z,0.00
2022-11-16T17:19:46.156Z,0.00
2022-11-16T17:20:45.948Z,0.00
2022-11-16T17:21:46.588Z,0.00
2022-11-16T17:22:45.966Z,0.00
2022-11-16T17:23:45.917Z,0.00
2022-11-16T17:24:45.911Z,0.00
2022-11-16T17:25:45.972Z,0.00
2022-11-16T17:26:46.368Z,0.00
2022-11-16T17:27:46.126Z,0.00
2022-11-16T17:28:45.838Z,0.00
2022-11-16T17:29:50.759Z,0.00
2022-11-16T17:30:45.823Z,0.00
2022-11-16T17:31:45.808Z,0.00
2022-11-16T17:32:45.801Z,0.00
2022-11-16T17:33:48.151Z,0.00
2022-11-16T17:34:45.790Z,0.00
2022-11-16T17:35:45.754Z,0.00
2022-11-16T17:36:46.353Z,0.00
2022-11-16T17:37:45.741Z,0.00
2022-11-16T17:38:50.971Z,0.00
2022-11-16T17:39:46.070Z,0.00
2022-11-16T17:40:50.949Z,0.00
2022-11-16T17:41:47.101Z,0.00
2022-11-16T17:42:48.421Z,0.00
2022-11-16T17:43:46.082Z,0.00